createdAt,value
2018-03-02T00:00:36.962Z,29.70
2018-03-02T00:01:36.968Z,28.00
2018-03-02T00:02:36.975Z,29.40
2018-03-02T00:03:36.984Z,24.10
2018-03-02T00:04:36.994Z,30.30
2018-03-02T00:05:37.003Z,24.70
2018-03-02T00:06:37.012Z,27.50
2018-03-02T00:07:37.023Z,30.10
2018-03-02T00:08:37.032Z,26.70
2018-03-02T00:09:37.042Z,24.90
2018-03-02T00:10:37.051Z,31.80
2018-03-02T00:11:37.060Z,31.00
2018-03-02T00:12:37.071Z,29.20
2018-03-02T00:13:37.080Z,28.40
2018-03-02T00:14:37.089Z,29.80
2018-03-02T00:15:37.098Z,25.60
2018-03-02T00:16:37.108Z,30.70
2018-03-02T00:17:37.118Z,26.70
2018-03-02T00:18:37.127Z,26.80
2018-03-02T00:19:37.139Z,25.70
2018-03-02T00:20:37.148Z,29.40
2018-03-02T00:21:37.157Z,28.20
2018-03-02T00:22:37.164Z,29.60
2018-03-02T00:23:37.174Z,29.50
2018-03-02T00:24:37.184Z,28.70
2018-03-02T00:25:37.193Z,28.60
2018-03-02T00:26:37.202Z,24.40
2018-03-02T00:27:37.212Z,28.20
2018-03-02T00:28:37.221Z,29.20
2018-03-02T00:29:37.233Z,29.60
2018-03-02T00:30:37.240Z,32.70
2018-03-02T00:31:37.250Z,30.00
2018-03-02T00:32:37.258Z,27.60
2018-03-02T00:33:37.269Z,31.80
2018-03-02T00:34:37.277Z,29.70
2018-03-02T00:35:37.286Z,26.80
2018-03-02T00:36:37.297Z,30.40
2018-03-02T00:37:37.307Z,30.70
2018-03-02T00:38:37.314Z,31.20
2018-03-02T00:39:37.324Z,29.10
2018-03-02T00:40:37.334Z,30.40
2018-03-02T00:41:37.344Z,32.10
2018-03-02T00:42:37.351Z,33.60
2018-03-02T00:43:37.362Z,31.20
2018-03-02T00:44:37.371Z,32.30
2018-03-02T00:45:37.381Z,32.80
2018-03-02T00:46:37.390Z,28.80
2018-03-02T00:47:37.400Z,32.00
2018-03-02T00:48:37.409Z,30.50
2018-03-02T00:49:37.418Z,29.80
2018-03-02T00:50:37.429Z,30.20
2018-03-02T00:51:37.437Z,29.20
2018-03-02T00:52:37.446Z,28.10
2018-03-02T00:53:37.456Z,32.10
2018-03-02T00:54:37.465Z,31.30
2018-03-02T00:55:37.473Z,32.70
2018-03-02T00:56:37.483Z,30.40
2018-03-02T00:57:37.493Z,30.90
2018-03-02T00:58:37.502Z,34.90
2018-03-02T00:59:37.511Z,33.70
2018-03-02T01:00:37.521Z,31.00
2018-03-02T01:01:37.530Z,29.90
2018-03-02T01:02:37.539Z,31.70
2018-03-02T01:03:37.548Z,27.20
2018-03-02T01:04:37.558Z,35.00
2018-03-02T01:05:37.567Z,30.30
2018-03-02T01:06:37.575Z,30.10
2018-03-02T01:07:37.584Z,30.60
2018-03-02T01:08:37.595Z,29.20
2018-03-02T01:09:37.608Z,32.30
2018-03-02T01:10:37.612Z,30.70
2018-03-02T01:11:37.677Z,32.90
2018-03-02T01:12:37.632Z,29.90
2018-03-02T01:13:37.640Z,34.20
2018-03-02T01:14:37.649Z,30.90
2018-03-02T01:15:37.658Z,34.10
2018-03-02T01:16:37.667Z,38.20
2018-03-02T01:17:37.677Z,33.30
2018-03-02T01:18:37.685Z,35.80
2018-03-02T01:19:37.696Z,34.50
2018-03-02T01:20:37.705Z,28.20
2018-03-02T01:21:37.715Z,35.00
2018-03-02T01:22:37.722Z,29.80
2018-03-02T01:23:37.731Z,32.80
2018-03-02T01:24:37.742Z,30.70
2018-03-02T01:25:37.751Z,33.70
2018-03-02T01:26:37.764Z,36.00
2018-03-02T01:27:37.768Z,32.10
2018-03-02T01:28:37.778Z,35.40
2018-03-02T01:29:37.787Z,33.10
2018-03-02T01:30:37.796Z,34.10
2018-03-02T01:31:37.805Z,35.60
2018-03-02T01:32:37.814Z,33.70
2018-03-02T01:33:37.824Z,31.80
2018-03-02T01:34:37.832Z,35.60
2018-03-02T01:35:37.843Z,32.40
2018-03-02T01:36:37.851Z,33.60
2018-03-02T01:37:37.860Z,34.90
2018-03-02T01:38:37.868Z,34.00
2018-03-02T01:39:37.878Z,35.90
2018-03-02T01:40:37.890Z,33.60
2018-03-02T01:41:37.897Z,31.70
2018-03-02T01:42:37.908Z,30.50
2018-03-02T01:43:37.921Z,40.60
2018-03-02T01:44:37.924Z,34.60
2018-03-02T01:45:37.933Z,35.30
2018-03-02T01:46:37.942Z,33.20
2018-03-02T01:47:37.951Z,39.00
2018-03-02T01:48:37.960Z,37.80
2018-03-02T01:49:37.970Z,36.00
2018-03-02T01:50:37.978Z,34.90
2018-03-02T01:51:37.988Z,32.80
2018-03-02T01:52:37.997Z,35.40
2018-03-02T01:53:38.006Z,34.30
2018-03-02T01:54:38.015Z,38.20
2018-03-02T01:55:38.025Z,35.00
2018-03-02T01:56:38.033Z,34.10
2018-03-02T01:57:38.042Z,36.20
2018-03-02T01:58:38.051Z,38.60
2018-03-02T01:59:38.063Z,38.80
2018-03-02T02:00:38.070Z,39.80
2018-03-02T02:01:38.078Z,36.20
2018-03-02T02:02:38.086Z,36.40
2018-03-02T02:03:38.096Z,34.70
2018-03-02T02:04:38.105Z,35.50
2018-03-02T02:05:38.114Z,35.30
2018-03-02T02:06:38.123Z,33.60
2018-03-02T02:07:38.132Z,34.10
2018-03-02T02:08:38.141Z,37.90
2018-03-02T02:09:38.151Z,35.30
2018-03-02T02:10:38.159Z,32.10
2018-03-02T02:11:38.168Z,35.90
2018-03-02T02:12:38.177Z,38.80
2018-03-02T02:13:38.187Z,35.90
2018-03-02T02:14:38.195Z,34.60
2018-03-02T02:15:38.205Z,36.80
2018-03-02T02:16:38.213Z,34.20
2018-03-02T02:17:38.223Z,39.60
2018-03-02T02:18:38.231Z,37.50
2018-03-02T02:19:38.240Z,36.50
2018-03-02T02:20:38.249Z,38.80
2018-03-02T02:21:38.258Z,41.20
2018-03-02T02:22:38.267Z,34.20
2018-03-02T02:23:38.275Z,34.20
2018-03-02T02:24:38.285Z,36.20
2018-03-02T02:25:38.294Z,37.40
2018-03-02T02:26:38.302Z,36.70
2018-03-02T02:27:38.311Z,35.40
2018-03-02T02:28:38.322Z,35.60
2018-03-02T02:29:38.334Z,41.80
2018-03-02T02:30:38.338Z,38.30
2018-03-02T02:31:38.348Z,35.30
2018-03-02T02:32:38.358Z,37.80
2018-03-02T02:33:38.366Z,43.60
2018-03-02T02:34:38.374Z,40.60
2018-03-02T02:35:38.383Z,40.90
2018-03-02T02:36:38.393Z,37.40
2018-03-02T02:37:38.406Z,33.20
2018-03-02T02:38:38.408Z,37.50
2018-03-02T02:39:38.420Z,41.70
2018-03-02T02:40:38.429Z,40.50
2018-03-02T02:41:38.443Z,40.90
2018-03-02T02:42:38.449Z,35.40
2018-03-02T02:43:38.453Z,41.50
2018-03-02T02:44:38.463Z,37.80
2018-03-02T02:45:38.475Z,44.70
2018-03-02T02:46:38.481Z,42.50
2018-03-02T02:47:38.490Z,35.30
2018-03-02T02:48:38.498Z,39.40
2018-03-02T02:49:38.507Z,38.50
2018-03-02T02:50:38.523Z,43.10
2018-03-02T02:51:38.526Z,42.20
2018-03-02T02:52:38.533Z,40.30
2018-03-02T02:53:38.543Z,44.30
2018-03-02T02:54:38.569Z,36.50
2018-03-02T02:55:38.559Z,43.50
2018-03-02T02:56:38.567Z,39.00
2018-03-02T02:57:38.579Z,42.60
2018-03-02T02:58:38.585Z,43.00
2018-03-02T02:59:38.593Z,40.60
2018-03-02T03:00:38.604Z,41.20
2018-03-02T03:01:38.614Z,44.30
2018-03-02T03:02:38.630Z,47.60
2018-03-02T03:03:38.629Z,42.40
2018-03-02T03:04:38.638Z,39.70
2018-03-02T03:05:38.647Z,41.40
2018-03-02T03:06:38.654Z,40.10
2018-03-02T03:07:38.664Z,42.00
2018-03-02T03:08:38.674Z,44.10
2018-03-02T03:09:38.681Z,45.80
2018-03-02T03:10:38.691Z,40.50
2018-03-02T03:11:38.698Z,41.30
2018-03-02T03:12:38.707Z,50.90
2018-03-02T03:13:38.717Z,46.70
2018-03-02T03:14:38.725Z,38.00
2018-03-02T03:15:38.740Z,51.20
2018-03-02T03:16:38.741Z,40.90
2018-03-02T03:17:38.751Z,40.40
2018-03-02T03:18:38.759Z,40.40
2018-03-02T03:19:38.768Z,43.70
2018-03-02T03:20:38.778Z,47.50
2018-03-02T03:21:38.785Z,37.60
2018-03-02T03:22:38.793Z,44.20
2018-03-02T03:23:38.802Z,43.80
2018-03-02T03:24:38.811Z,37.90
2018-03-02T03:25:38.819Z,46.70
2018-03-02T03:26:38.828Z,45.60
2018-03-02T03:27:38.836Z,43.30
2018-03-02T03:28:38.846Z,43.80
2018-03-02T03:29:38.855Z,45.90
2018-03-02T03:30:38.863Z,45.30
2018-03-02T03:31:38.873Z,37.90
2018-03-02T03:32:38.880Z,46.60
2018-03-02T03:33:38.889Z,41.60
2018-03-02T03:34:38.896Z,43.20
2018-03-02T03:35:38.905Z,45.90
2018-03-02T03:36:38.914Z,49.60
2018-03-02T03:37:38.929Z,41.50
2018-03-02T03:38:38.931Z,44.60
2018-03-02T03:39:38.938Z,44.10
2018-03-02T03:40:38.948Z,43.50
2018-03-02T03:41:38.958Z,40.50
2018-03-02T03:42:38.964Z,42.60
2018-03-02T03:43:39.009Z,45.20
2018-03-02T03:44:38.984Z,45.80
2018-03-02T03:45:38.991Z,42.40
2018-03-02T03:46:38.999Z,42.60
2018-03-02T03:47:39.008Z,47.20
2018-03-02T03:48:39.017Z,43.50
2018-03-02T03:49:39.025Z,45.20
2018-03-02T03:50:39.033Z,45.60
2018-03-02T03:51:39.042Z,46.90
2018-03-02T03:52:39.051Z,46.90
2018-03-02T03:53:39.059Z,43.80
2018-03-02T03:54:39.067Z,47.10
2018-03-02T03:55:39.075Z,43.40
2018-03-02T03:56:39.085Z,47.20
2018-03-02T03:57:39.093Z,45.20
2018-03-02T03:58:39.101Z,46.30
2018-03-02T03:59:39.110Z,45.80
2018-03-02T04:00:39.118Z,45.70
2018-03-02T04:01:39.128Z,41.40
2018-03-02T04:02:39.135Z,40.70
2018-03-02T04:03:39.144Z,42.90
2018-03-02T04:04:39.156Z,45.70
2018-03-02T04:05:39.161Z,45.40
2018-03-02T04:06:39.169Z,42.60
2018-03-02T04:07:39.178Z,50.30
2018-03-02T04:08:39.185Z,44.10
2018-03-02T04:09:39.195Z,48.70
2018-03-02T04:10:39.203Z,46.20
2018-03-02T04:11:39.213Z,47.70
2018-03-02T04:12:39.220Z,43.80
2018-03-02T04:13:39.228Z,48.60
2018-03-02T04:14:39.239Z,44.90
2018-03-02T04:15:39.250Z,45.10
2018-03-02T04:16:39.258Z,48.80
2018-03-02T04:17:39.262Z,49.50
2018-03-02T04:18:39.270Z,42.00
2018-03-02T04:19:39.278Z,46.20
2018-03-02T04:20:39.287Z,42.80
2018-03-02T04:21:39.297Z,46.00
2018-03-02T04:22:39.303Z,45.90
2018-03-02T04:23:39.312Z,47.10
2018-03-02T04:24:39.320Z,45.30
2018-03-02T04:25:39.329Z,47.20
2018-03-02T04:26:39.336Z,45.80
2018-03-02T04:27:39.345Z,43.20
2018-03-02T04:28:39.354Z,48.80
2018-03-02T04:29:39.363Z,48.30
2018-03-02T04:30:39.374Z,45.90
2018-03-02T04:31:39.378Z,47.70
2018-03-02T04:32:39.387Z,47.90
2018-03-02T04:33:39.395Z,47.80
2018-03-02T04:34:39.404Z,47.10
2018-03-02T04:35:39.420Z,46.60
2018-03-02T04:36:39.421Z,47.00
2018-03-02T04:37:39.430Z,47.10
2018-03-02T04:38:39.437Z,47.10
2018-03-02T04:39:39.446Z,50.60
2018-03-02T04:40:39.455Z,48.00
2018-03-02T04:41:39.463Z,52.10
2018-03-02T04:42:39.471Z,49.60
2018-03-02T04:43:39.479Z,46.20
2018-03-02T04:44:39.488Z,48.50
2018-03-02T04:45:39.549Z,46.90
2018-03-02T04:46:39.504Z,50.90
2018-03-02T04:47:39.513Z,50.40
2018-03-02T04:48:39.521Z,48.40
2018-03-02T04:49:39.531Z,45.50
2018-03-02T04:50:39.537Z,44.40
2018-03-02T04:51:39.547Z,46.30
2018-03-02T04:52:39.555Z,46.90
2018-03-02T04:53:39.563Z,42.20
2018-03-02T04:54:39.572Z,43.50
2018-03-02T04:55:39.580Z,54.40
2018-03-02T04:56:39.593Z,46.90
2018-03-02T04:57:39.595Z,50.80
2018-03-02T04:58:39.604Z,47.00
2018-03-02T04:59:39.612Z,48.70
2018-03-02T05:00:39.625Z,47.20
2018-03-02T05:01:39.629Z,48.50
2018-03-02T05:02:39.638Z,46.40
2018-03-02T05:03:39.664Z,51.20
2018-03-02T05:04:39.655Z,44.40
2018-03-02T05:05:39.662Z,47.90
2018-03-02T05:06:39.669Z,47.70
2018-03-02T05:07:39.682Z,48.50
2018-03-02T05:08:39.688Z,47.90
2018-03-02T05:09:39.699Z,48.60
2018-03-02T05:10:39.703Z,48.60
2018-03-02T05:11:39.712Z,48.30
2018-03-02T05:12:39.721Z,48.70
2018-03-02T05:13:39.729Z,48.40
2018-03-02T05:14:39.736Z,48.00
2018-03-02T05:15:39.745Z,46.40
2018-03-02T05:16:39.754Z,45.00
2018-03-02T05:17:39.800Z,49.20
2018-03-02T05:18:39.770Z,48.80
2018-03-02T05:19:39.778Z,48.60
2018-03-02T05:20:39.786Z,51.30
2018-03-02T05:21:39.853Z,49.00
2018-03-02T05:22:39.802Z,48.60
2018-03-02T05:23:39.811Z,51.10
2018-03-02T05:24:39.819Z,47.70
2018-03-02T05:25:39.828Z,47.50
2018-03-02T05:26:39.835Z,53.30
2018-03-02T05:27:39.843Z,52.90
2018-03-02T05:28:39.852Z,46.10
2018-03-02T05:29:39.860Z,51.30
2018-03-02T05:30:39.868Z,45.90
2018-03-02T05:31:39.878Z,49.50
2018-03-02T05:32:39.885Z,52.80
2018-03-02T05:33:39.893Z,60.70
2018-03-02T05:34:39.901Z,48.80
2018-03-02T05:35:39.909Z,50.40
2018-03-02T05:36:40.018Z,50.30
2018-03-02T05:37:39.926Z,44.40
2018-03-02T05:38:39.934Z,56.60
2018-03-02T05:39:39.943Z,46.90
2018-03-02T05:40:39.949Z,46.80
2018-03-02T05:41:39.958Z,49.70
2018-03-02T05:42:39.965Z,50.30
2018-03-02T05:43:39.975Z,53.40
2018-03-02T05:44:39.983Z,49.20
2018-03-02T05:45:39.992Z,48.10
2018-03-02T05:46:39.999Z,53.80
2018-03-02T05:47:40.008Z,46.80
2018-03-02T05:48:40.016Z,49.20
2018-03-02T05:49:40.024Z,51.20
2018-03-02T05:50:40.037Z,45.40
2018-03-02T05:51:40.040Z,52.00
2018-03-02T05:52:40.047Z,58.70
2018-03-02T05:53:40.057Z,46.90
2018-03-02T05:54:40.068Z,51.00
2018-03-02T05:55:40.073Z,50.70
2018-03-02T05:56:40.082Z,49.50
2018-03-02T05:57:40.089Z,49.30
2018-03-02T05:58:40.096Z,49.10
2018-03-02T05:59:40.104Z,52.60
2018-03-02T06:00:40.113Z,47.60
2018-03-02T06:01:40.121Z,45.00
2018-03-02T06:02:40.129Z,50.50
2018-03-02T06:03:40.137Z,51.90
2018-03-02T06:04:40.185Z,52.00
2018-03-02T06:05:40.153Z,50.00
2018-03-02T06:06:40.161Z,53.10
2018-03-02T06:07:40.168Z,49.20
2018-03-02T06:08:40.176Z,46.50
2018-03-02T06:09:40.185Z,49.30
2018-03-02T06:10:40.192Z,49.80
2018-03-02T06:11:40.201Z,49.10
2018-03-02T06:12:40.213Z,50.20
2018-03-02T06:13:40.217Z,47.50
2018-03-02T06:14:40.225Z,49.20
2018-03-02T06:15:40.237Z,56.80
2018-03-02T06:16:40.241Z,60.20
2018-03-02T06:17:40.250Z,57.30
2018-03-02T06:18:40.255Z,53.20
2018-03-02T06:19:40.265Z,50.40
2018-03-02T06:20:40.274Z,53.40
2018-03-02T06:21:40.282Z,52.40
2018-03-02T06:22:40.292Z,55.70
2018-03-02T06:23:40.298Z,52.30
2018-03-02T06:24:40.305Z,52.20
2018-03-02T06:25:40.317Z,50.00
2018-03-02T06:26:40.322Z,64.20
2018-03-02T06:27:40.329Z,58.60
2018-03-02T06:28:40.344Z,55.60
2018-03-02T06:29:40.346Z,45.10
2018-03-02T06:30:40.353Z,61.60
2018-03-02T06:31:40.360Z,55.10
2018-03-02T06:32:40.371Z,52.60
2018-03-02T06:33:40.377Z,63.50
2018-03-02T06:34:40.385Z,53.30
2018-03-02T06:35:40.394Z,52.50
2018-03-02T06:36:40.402Z,52.80
2018-03-02T06:37:40.410Z,78.40
2018-03-02T06:38:40.419Z,54.30
2018-03-02T06:39:40.427Z,56.30
2018-03-02T06:40:40.433Z,50.30
2018-03-02T06:41:40.442Z,55.70
2018-03-02T06:42:40.449Z,49.40
2018-03-02T06:43:40.458Z,60.70
2018-03-02T06:44:40.465Z,54.70
2018-03-02T06:45:40.474Z,57.30
2018-03-02T06:46:40.481Z,59.90
2018-03-02T06:47:40.489Z,51.70
2018-03-02T06:48:40.498Z,55.90
2018-03-02T06:49:40.506Z,50.50
2018-03-02T06:50:40.513Z,66.40
2018-03-02T06:51:40.522Z,73.30
2018-03-02T06:52:40.529Z,67.30
2018-03-02T06:53:40.539Z,73.00
2018-03-02T06:54:40.546Z,54.80
2018-03-02T06:55:40.555Z,59.70
2018-03-02T06:56:40.563Z,58.30
2018-03-02T06:57:40.571Z,56.00
2018-03-02T06:58:40.616Z,55.30
2018-03-02T06:59:40.587Z,63.50
2018-03-02T07:00:40.594Z,59.00
2018-03-02T07:01:40.604Z,62.20
2018-03-02T07:02:40.611Z,59.30
2018-03-02T07:03:40.620Z,53.80
2018-03-02T07:04:40.628Z,49.90
2018-03-02T07:05:40.641Z,57.30
2018-03-02T07:06:40.643Z,55.90
2018-03-02T07:07:40.651Z,61.50
2018-03-02T07:08:40.666Z,50.10
2018-03-02T07:09:40.674Z,56.70
2018-03-02T07:10:40.681Z,56.20
2018-03-02T07:11:40.684Z,53.00
2018-03-02T07:12:40.693Z,56.30
2018-03-02T07:13:40.701Z,55.60
2018-03-02T07:14:40.707Z,53.00
2018-03-02T07:15:40.715Z,56.90
2018-03-02T07:16:40.725Z,54.00
2018-03-02T07:17:40.733Z,53.50
2018-03-02T07:18:40.741Z,50.60
2018-03-02T07:19:40.749Z,57.70
2018-03-02T07:20:40.757Z,49.20
2018-03-02T07:21:40.766Z,55.50
2018-03-02T07:22:40.773Z,51.90
2018-03-02T07:23:40.782Z,52.60
2018-03-02T07:24:40.791Z,62.10
2018-03-02T07:25:40.798Z,54.00
2018-03-02T07:26:40.806Z,58.30
2018-03-02T07:27:40.818Z,53.90
2018-03-02T07:28:40.823Z,46.50
2018-03-02T07:29:40.835Z,59.50
2018-03-02T07:30:40.838Z,90.00
2018-03-02T07:31:40.849Z,74.10
2018-03-02T07:32:40.856Z,54.40
2018-03-02T07:33:40.864Z,56.30
2018-03-02T07:34:40.874Z,59.20
2018-03-02T07:35:40.880Z,65.80
2018-03-02T07:36:40.889Z,59.90
2018-03-02T07:37:40.897Z,55.00
2018-03-02T07:38:40.905Z,62.30
2018-03-02T07:39:40.914Z,59.60
2018-03-02T07:40:40.922Z,59.20
2018-03-02T07:41:40.931Z,55.40
2018-03-02T07:42:40.939Z,54.40
2018-03-02T07:43:40.950Z,55.70
2018-03-02T07:44:40.956Z,50.50
2018-03-02T07:45:40.965Z,54.30
2018-03-02T07:46:41.077Z,54.40
2018-03-02T07:47:40.980Z,50.90
2018-03-02T07:48:40.989Z,57.50
2018-03-02T07:49:40.998Z,49.70
2018-03-02T07:50:41.006Z,58.40
2018-03-02T07:51:41.017Z,62.30
2018-03-02T07:52:41.023Z,59.40
2018-03-02T07:53:41.031Z,57.60
2018-03-02T07:54:41.038Z,51.90
2018-03-02T07:55:41.049Z,56.40
2018-03-02T07:56:41.056Z,51.40
2018-03-02T07:57:41.065Z,57.50
2018-03-02T07:58:41.073Z,60.30
2018-03-02T07:59:41.082Z,56.00
2018-03-02T08:00:41.091Z,49.40
2018-03-02T08:01:41.100Z,54.60
2018-03-02T08:02:41.107Z,55.30
2018-03-02T08:03:41.116Z,55.10
2018-03-02T08:04:41.125Z,50.80
2018-03-02T08:05:41.133Z,61.90
2018-03-02T08:06:41.142Z,51.50
2018-03-02T08:07:41.151Z,57.70
2018-03-02T08:08:41.160Z,60.90
2018-03-02T08:09:41.169Z,55.40
2018-03-02T08:10:41.177Z,53.90
2018-03-02T08:11:41.185Z,53.40
2018-03-02T08:12:41.195Z,54.00
2018-03-02T08:13:41.204Z,54.90
2018-03-02T08:14:41.211Z,55.60
2018-03-02T08:15:41.221Z,51.50
2018-03-02T08:16:41.232Z,59.70
2018-03-02T08:17:41.239Z,57.50
2018-03-02T08:18:41.248Z,62.60
2018-03-02T08:19:41.256Z,52.10
2018-03-02T08:20:41.265Z,51.70
2018-03-02T08:21:41.276Z,54.50
2018-03-02T08:22:41.284Z,63.30
2018-03-02T08:23:41.293Z,59.10
2018-03-02T08:24:41.302Z,53.80
2018-03-02T08:25:41.312Z,53.60
2018-03-02T08:26:41.322Z,60.40
2018-03-02T08:27:41.330Z,56.10
2018-03-02T08:28:41.340Z,52.40
2018-03-02T08:29:41.350Z,57.20
2018-03-02T08:30:41.356Z,65.70
2018-03-02T08:31:41.367Z,55.80
2018-03-02T08:32:41.377Z,52.10
2018-03-02T08:33:41.385Z,52.20
2018-03-02T08:34:41.395Z,54.30
2018-03-02T08:35:41.404Z,53.30
2018-03-02T08:36:41.413Z,58.00
2018-03-02T08:37:41.431Z,62.50
2018-03-02T08:38:41.431Z,64.00
2018-03-02T08:39:41.440Z,57.40
2018-03-02T08:40:41.450Z,82.40
2018-03-02T08:41:41.459Z,58.30
2018-03-02T08:42:41.469Z,56.60
2018-03-02T08:43:41.479Z,61.70
2018-03-02T08:44:41.487Z,64.20
2018-03-02T08:45:41.496Z,56.30
2018-03-02T08:46:41.504Z,52.90
2018-03-02T08:47:41.514Z,59.80
2018-03-02T08:48:41.578Z,64.10
2018-03-02T08:49:41.534Z,64.60
2018-03-02T08:50:41.543Z,57.30
2018-03-02T08:51:41.552Z,59.30
2018-03-02T08:52:41.560Z,63.60
2018-03-02T08:53:41.574Z,63.10
2018-03-02T08:54:41.580Z,49.20
2018-03-02T08:55:41.589Z,48.50
2018-03-02T08:56:41.599Z,55.70
2018-03-02T08:57:41.609Z,50.00
2018-03-02T08:58:41.619Z,57.90
2018-03-02T08:59:41.640Z,52.90
2018-03-02T09:00:41.639Z,55.90
2018-03-02T09:01:41.648Z,52.60
2018-03-02T09:02:41.657Z,55.50
2018-03-02T09:03:41.667Z,52.70
2018-03-02T09:04:41.676Z,52.50
2018-03-02T09:05:41.685Z,65.60
2018-03-02T09:06:41.695Z,55.10
2018-03-02T09:07:41.704Z,55.00
2018-03-02T09:08:41.715Z,50.80
2018-03-02T09:09:41.724Z,46.80
2018-03-02T09:10:41.733Z,85.20
2018-03-02T09:11:41.743Z,66.10
2018-03-02T09:12:41.753Z,59.70
2018-03-02T09:13:41.762Z,80.80
2018-03-02T09:14:41.772Z,69.20
2018-03-02T09:15:41.782Z,60.00
2018-03-02T09:16:41.792Z,53.30
2018-03-02T09:17:41.804Z,58.50
2018-03-02T09:18:41.814Z,54.40
2018-03-02T09:19:41.821Z,58.20
2018-03-02T09:20:41.831Z,53.00
2018-03-02T09:21:41.842Z,85.20
2018-03-02T09:22:41.851Z,68.80
2018-03-02T09:23:41.872Z,71.80
2018-03-02T09:24:41.871Z,73.30
2018-03-02T09:25:41.882Z,64.80
2018-03-02T09:26:41.891Z,53.60
2018-03-02T09:27:41.901Z,67.60
2018-03-02T09:28:41.911Z,60.70
2018-03-02T09:29:41.921Z,49.40
2018-03-02T09:30:41.935Z,52.00
2018-03-02T09:31:41.941Z,62.00
2018-03-02T09:32:41.950Z,90.70
2018-03-02T09:33:41.960Z,55.90
2018-03-02T09:34:41.969Z,55.10
2018-03-02T09:35:41.980Z,60.70
2018-03-02T09:36:41.996Z,64.30
2018-03-02T09:37:42.002Z,71.90
2018-03-02T09:38:42.012Z,84.50
2018-03-02T09:39:42.021Z,55.40
2018-03-02T09:40:42.032Z,52.50
2018-03-02T09:41:42.042Z,52.80
2018-03-02T09:42:42.109Z,60.80
2018-03-02T09:43:42.062Z,60.40
2018-03-02T09:44:42.072Z,58.00
2018-03-02T09:45:42.082Z,54.90
2018-03-02T09:46:42.092Z,70.50
2018-03-02T09:47:42.107Z,67.50
2018-03-02T09:48:42.114Z,73.80
2018-03-02T09:49:42.124Z,64.50
2018-03-02T09:50:42.133Z,45.30
2018-03-02T09:51:42.143Z,59.70
2018-03-02T09:52:42.154Z,55.20
2018-03-02T09:53:42.166Z,59.00
2018-03-02T09:54:42.173Z,66.60
2018-03-02T09:55:42.184Z,85.70
2018-03-02T09:56:42.195Z,77.10
2018-03-02T09:57:42.205Z,56.10
2018-03-02T09:58:42.220Z,67.40
2018-03-02T09:59:42.225Z,60.50
2018-03-02T10:00:42.239Z,52.60
2018-03-02T10:01:42.247Z,51.90
2018-03-02T10:02:42.257Z,57.80
2018-03-02T10:03:42.267Z,57.80
2018-03-02T10:04:42.280Z,53.30
2018-03-02T10:05:42.289Z,73.50
2018-03-02T10:06:42.299Z,71.20
2018-03-02T10:07:42.310Z,49.20
2018-03-02T10:08:42.321Z,52.10
2018-03-02T10:09:42.332Z,52.00
2018-03-02T10:10:42.342Z,48.50
2018-03-02T10:11:42.352Z,54.50
2018-03-02T10:12:42.365Z,55.30
2018-03-02T10:13:42.374Z,52.80
2018-03-02T10:14:42.390Z,52.40
2018-03-02T10:15:42.396Z,51.20
2018-03-02T10:16:42.457Z,48.80
2018-03-02T10:17:42.418Z,75.90
2018-03-02T10:18:42.429Z,53.50
2018-03-02T10:19:42.440Z,56.30
2018-03-02T10:20:42.484Z,50.40
2018-03-02T10:21:42.478Z,57.40
2018-03-02T10:22:42.471Z,51.60
2018-03-02T10:23:42.485Z,51.00
2018-03-02T10:24:42.494Z,61.30
2018-03-02T10:25:42.507Z,60.50
2018-03-02T10:26:42.516Z,54.00
2018-03-02T10:27:42.530Z,61.70
2018-03-02T10:28:42.539Z,60.50
2018-03-02T10:29:42.557Z,48.80
2018-03-02T10:30:42.562Z,56.30
2018-03-02T10:31:42.572Z,49.60
2018-03-02T10:32:42.584Z,48.90
2018-03-02T10:33:42.653Z,47.80
2018-03-02T10:34:42.606Z,51.40
2018-03-02T10:35:42.642Z,45.80
2018-03-02T10:36:42.629Z,69.30
2018-03-02T10:37:42.642Z,63.30
2018-03-02T10:38:42.651Z,57.70
2018-03-02T10:39:42.663Z,47.30
2018-03-02T10:40:42.675Z,47.80
2018-03-02T10:41:42.687Z,50.80
2018-03-02T10:42:42.699Z,48.90
2018-03-02T10:43:42.708Z,48.50
2018-03-02T10:44:42.921Z,61.90
2018-03-02T10:45:42.732Z,57.20
2018-03-02T10:46:42.747Z,58.10
2018-03-02T10:47:42.756Z,80.10
2018-03-02T10:48:42.767Z,66.20
2018-03-02T10:49:42.778Z,53.70
2018-03-02T10:50:42.789Z,50.10
2018-03-02T10:51:42.800Z,54.90
2018-03-02T10:52:42.812Z,50.60
2018-03-02T10:53:42.824Z,45.80
2018-03-02T10:54:42.834Z,52.70
2018-03-02T10:55:43.447Z,96.20
2018-03-02T10:56:42.859Z,92.40
2018-03-02T10:57:42.870Z,60.20
2018-03-02T10:58:42.881Z,57.80
2018-03-02T10:59:42.894Z,45.90
2018-03-02T11:00:42.905Z,48.00
2018-03-02T11:01:42.917Z,57.00
2018-03-02T11:02:42.927Z,45.60
2018-03-02T11:03:42.938Z,49.50
2018-03-02T11:04:42.951Z,54.30
2018-03-02T11:05:42.962Z,49.10
2018-03-02T11:06:42.973Z,54.90
2018-03-02T11:07:42.985Z,52.00
2018-03-02T11:08:42.997Z,82.00
2018-03-02T11:09:43.011Z,66.80
2018-03-02T11:10:43.020Z,65.70
2018-03-02T11:11:43.032Z,71.30
2018-03-02T11:12:43.045Z,91.40
2018-03-02T11:13:43.103Z,70.10
2018-03-02T11:14:43.068Z,54.90
2018-03-02T11:15:43.078Z,48.80
2018-03-02T11:16:43.090Z,51.20
2018-03-02T11:17:43.102Z,44.80
2018-03-02T11:18:43.114Z,52.40
2018-03-02T11:19:43.126Z,57.30
2018-03-02T11:20:43.139Z,54.60
2018-03-02T11:21:43.150Z,52.50
2018-03-02T11:22:43.161Z,84.50
2018-03-02T11:23:43.173Z,52.60
2018-03-02T11:24:43.185Z,62.10
2018-03-02T11:25:43.199Z,49.00
2018-03-02T11:26:43.210Z,58.50
2018-03-02T11:27:43.221Z,50.80
2018-03-02T11:28:43.233Z,70.00
2018-03-02T11:29:43.245Z,60.20
2018-03-02T11:30:43.256Z,50.30
2018-03-02T11:31:43.268Z,53.80
2018-03-02T11:32:43.281Z,53.90
2018-03-02T11:33:43.301Z,52.90
2018-03-02T11:34:43.307Z,46.70
2018-03-02T11:35:43.315Z,59.00
2018-03-02T11:36:43.328Z,58.50
2018-03-02T11:37:43.339Z,60.80
2018-03-02T11:38:43.351Z,61.20
2018-03-02T11:39:43.363Z,55.70
2018-03-02T11:40:43.381Z,80.60
2018-03-02T11:41:43.387Z,58.00
2018-03-02T11:42:43.398Z,53.80
2018-03-02T11:43:43.410Z,65.10
2018-03-02T11:44:43.423Z,54.50
2018-03-02T11:45:43.435Z,52.00
2018-03-02T11:46:43.445Z,48.70
2018-03-02T11:47:43.458Z,58.20
2018-03-02T11:48:43.470Z,65.70
2018-03-02T11:49:43.482Z,62.00
2018-03-02T11:50:43.494Z,162.90
2018-03-02T11:51:43.506Z,67.50
2018-03-02T11:52:43.519Z,61.20
2018-03-02T11:53:43.531Z,57.40
2018-03-02T11:54:43.541Z,59.20
2018-03-02T11:55:43.555Z,88.10
2018-03-02T11:56:43.566Z,66.10
2018-03-02T11:57:43.578Z,62.50
2018-03-02T11:58:43.590Z,56.90
2018-03-02T11:59:43.603Z,52.90
2018-03-02T12:00:43.863Z,62.60
2018-03-02T12:01:43.625Z,73.30
2018-03-02T12:02:43.636Z,100.70
2018-03-02T12:03:43.652Z,71.80
2018-03-02T12:04:43.661Z,59.00
2018-03-02T12:05:43.673Z,66.80
2018-03-02T12:06:43.684Z,50.10
2018-03-02T12:07:43.696Z,57.30
2018-03-02T12:08:43.707Z,61.10
2018-03-02T12:09:43.720Z,58.30
2018-03-02T12:10:43.732Z,57.20
2018-03-02T12:11:43.744Z,57.20
2018-03-02T12:12:43.757Z,72.50
2018-03-02T12:13:43.770Z,56.00
2018-03-02T12:14:43.781Z,59.00
2018-03-02T12:15:43.943Z,68.70
2018-03-02T12:16:43.823Z,72.20
2018-03-02T12:17:43.816Z,76.60
2018-03-02T12:18:43.828Z,56.50
2018-03-02T12:19:43.840Z,67.60
2018-03-02T12:20:43.854Z,52.50
2018-03-02T12:21:44.170Z,71.10
2018-03-02T12:22:43.906Z,60.30
2018-03-02T12:23:43.888Z,70.50
2018-03-02T12:24:43.901Z,56.50
2018-03-02T12:25:43.913Z,49.20
2018-03-02T12:26:43.924Z,49.20
2018-03-02T12:27:43.939Z,63.20
2018-03-02T12:28:43.949Z,68.70
2018-03-02T12:29:43.961Z,59.70
2018-03-02T12:30:43.973Z,70.00
2018-03-02T12:31:43.987Z,56.10
2018-03-02T12:32:43.997Z,73.00
2018-03-02T12:33:44.012Z,48.30
2018-03-02T12:34:44.022Z,56.40
2018-03-02T12:35:44.034Z,96.10
2018-03-02T12:36:44.090Z,66.70
2018-03-02T12:37:44.059Z,45.40
2018-03-02T12:38:44.074Z,56.20
2018-03-02T12:39:44.083Z,52.70
2018-03-02T12:40:44.099Z,54.50
2018-03-02T12:41:44.108Z,54.60
2018-03-02T12:42:44.320Z,75.80
2018-03-02T12:43:44.132Z,61.80
2018-03-02T12:44:44.144Z,69.90
2018-03-02T12:45:44.161Z,78.50
2018-03-02T12:46:44.219Z,63.40
2018-03-02T12:47:44.181Z,61.80
2018-03-02T12:48:44.194Z,60.00
2018-03-02T12:49:44.206Z,57.30
2018-03-02T12:50:44.217Z,50.10
2018-03-02T12:51:44.230Z,52.50
2018-03-02T12:52:44.243Z,49.70